Time;durP1;ratioP1;P1;durP2;ratioP2;P2;SDS_P1;SDS_P2;PMS_P1;PMS_P2;Temp;Humidity;BMP_temperature;BMP_pressure;BME280_temperature;BME280_humidity;BME280_pressure;Samples;Min_cycle;Max_cycle;Signal;HPM_P1;HPM_P2
2023/05/16 00:02:21;;;;;;;4.95;1.25;;;;;;;11.76;100.00;101478.59;4973976;28;20079;-66
2023/05/16 00:04:48;;;;;;;8.02;1.60;;;;;;;11.91;100.00;101481.69;4986898;28;20046;-66
2023/05/16 00:07:15;;;;;;;6.10;1.70;;;;;;;11.91;100.00;101495.66;4987755;28;20038;-66
2023/05/16 00:09:42;;;;;;;5.72;1.38;;;;;;;11.93;100.00;101488.63;4974274;28;20432;-66
2023/05/16 00:12:10;;;;;;;3.22;1.20;;;;;;;12.02;100.00;101476.09;4987080;28;20061;-66
2023/05/16 00:14:36;;;;;;;5.82;1.50;;;;;;;12.10;100.00;101481.97;4986627;28;20046;-66
2023/05/16 00:17:10;;;;;;;4.45;1.27;;;;;;;12.21;100.00;101479.00;4986936;28;20389;-66
2023/05/16 00:19:41;;;;;;;6.55;1.35;;;;;;;11.86;100.00;101438.94;4985622;28;20137;-66
2023/05/16 00:22:07;;;;;;;3.67;1.40;;;;;;;12.01;100.00;101472.63;4986808;28;20958;-66
2023/05/16 00:24:34;;;;;;;7.80;1.55;;;;;;;11.91;100.00;101466.78;4985302;28;20492;-66
2023/05/16 00:27:02;;;;;;;5.18;1.50;;;;;;;11.89;100.00;101472.97;4987059;28;20050;-66
2023/05/16 00:29:34;;;;;;;6.32;1.23;;;;;;;11.91;100.00;101464.16;4987272;28;20058;-66
2023/05/16 00:32:00;;;;;;;8.57;1.80;;;;;;;11.87;100.00;101465.16;4986726;28;20108;-66
2023/05/16 00:34:27;;;;;;;6.28;1.50;;;;;;;11.72;100.00;101469.13;4988844;28;20081;-66
2023/05/16 00:36:54;;;;;;;2.95;1.15;;;;;;;11.89;100.00;101463.31;4989583;28;20470;-65
2023/05/16 00:39:20;;;;;;;3.95;1.15;;;;;;;11.88;100.00;101466.00;4990794;28;20084;-65
2023/05/16 00:41:47;;;;;;;8.55;1.95;;;;;;;11.79;100.00;101464.50;4990856;28;20504;-65
2023/05/16 00:44:14;;;;;;;6.60;1.70;;;;;;;11.93;100.00;101457.13;4989788;28;20554;-65
2023/05/16 00:46:40;;;;;;;5.95;1.50;;;;;;;12.04;100.00;101459.41;4990015;28;20058;-65
2023/05/16 00:49:08;;;;;;;7.15;1.70;;;;;;;11.96;100.00;101449.13;4981665;28;20061;-65
2023/05/16 00:51:37;;;;;;;6.50;1.55;;;;;;;11.97;100.00;101442.16;4990037;28;20061;-65
2023/05/16 00:54:05;;;;;;;5.88;1.75;;;;;;;12.01;100.00;101438.50;4990122;28;20531;-65
2023/05/16 00:56:32;;;;;;;3.75;1.23;;;;;;;12.02;100.00;101450.69;4990698;28;20081;-65
2023/05/16 00:59:00;;;;;;;7.32;1.75;;;;;;;12.08;100.00;101453.16;4991216;28;20085;-66
2023/05/16 01:01:27;;;;;;;5.88;1.42;;;;;;;12.07;100.00;101446.16;4989122;28;20058;-66
2023/05/16 01:03:54;;;;;;;7.03;1.60;;;;;;;11.94;100.00;101437.84;4988744;28;20046;-66
2023/05/16 01:06:21;;;;;;;4.32;1.23;;;;;;;11.98;100.00;101433.34;4989571;28;20046;-66
2023/05/16 01:08:48;;;;;;;5.53;1.23;;;;;;;11.96;100.00;101436.00;4989170;28;20161;-66
2023/05/16 01:11:15;;;;;;;6.15;1.48;;;;;;;12.08;100.00;101444.41;4967151;28;20072;-65
2023/05/16 01:14:09;;;;;;;4.22;1.10;;;;;;;12.13;100.00;101448.59;4982536;28;20066;-66
2023/05/16 01:16:53;;;;;;;7.35;1.50;;;;;;;12.14;100.00;101431.06;4989881;28;20376;-66
2023/05/16 01:19:55;;;;;;;4.75;1.50;;;;;;;12.07;100.00;101438.28;4989497;28;20066;-66
2023/05/16 01:22:30;;;;;;;5.90;1.63;;;;;;;12.18;100.00;101444.97;4982605;28;20054;-66
2023/05/16 01:25:09;;;;;;;7.88;1.77;;;;;;;12.04;100.00;101432.28;4989059;28;20494;-66
2023/05/16 01:27:37;;;;;;;5.85;1.83;;;;;;;11.98;100.00;101429.88;4989930;28;20054;-66
2023/05/16 01:30:14;;;;;;;7.13;1.80;;;;;;;11.87;100.00;101422.31;4991287;28;20065;-66
2023/05/16 01:32:42;;;;;;;9.98;2.08;;;;;;;11.94;100.00;101431.75;4988572;28;20062;-66
2023/05/16 01:35:12;;;;;;;10.13;2.65;;;;;;;11.80;100.00;101424.28;4988404;28;20054;-66
2023/05/16 01:38:03;;;;;;;7.47;2.53;;;;;;;11.98;100.00;101433.34;4990130;28;20096;-66
2023/05/16 01:41:01;;;;;;;6.93;2.00;;;;;;;11.79;100.00;101409.41;4992352;28;20427;-66
2023/05/16 01:43:39;;;;;;;8.85;2.47;;;;;;;11.74;100.00;101417.47;4988957;28;20072;-66
2023/05/16 01:46:11;;;;;;;9.30;2.30;;;;;;;11.67;100.00;101417.69;4988538;28;20471;-66
2023/05/16 01:48:52;;;;;;;10.65;2.40;;;;;;;11.64;100.00;101409.94;4989878;28;20054;-66
2023/05/16 01:51:25;;;;;;;7.63;2.17;;;;;;;11.56;100.00;101411.03;4990396;28;20062;-66
2023/05/16 01:54:00;;;;;;;8.80;2.47;;;;;;;11.57;100.00;101407.47;4989921;28;20881;-66
2023/05/16 01:56:28;;;;;;;6.68;2.22;;;;;;;11.70;100.00;101412.34;4989736;28;20050;-66
2023/05/16 01:58:58;;;;;;;6.72;2.10;;;;;;;11.73;100.00;101402.59;4989985;28;20046;-66
2023/05/16 02:01:25;;;;;;;8.98;1.83;;;;;;;11.72;100.00;101405.28;4987595;28;20068;-66
2023/05/16 02:03:51;;;;;;;5.68;1.83;;;;;;;11.63;100.00;101397.69;4988341;28;20124;-66
2023/05/16 02:06:19;;;;;;;9.02;1.80;;;;;;;11.74;100.00;101413.97;4987872;28;20088;-66
2023/05/16 02:08:45;;;;;;;8.15;2.45;;;;;;;11.52;100.00;101377.91;4990166;28;20176;-66
2023/05/16 02:11:12;;;;;;;5.72;1.73;;;;;;;11.76;100.00;101404.28;4989163;28;20050;-66
2023/05/16 02:13:39;;;;;;;9.38;2.35;;;;;;;11.65;100.00;101403.75;4987781;28;20050;-66
2023/05/16 02:16:05;;;;;;;9.00;2.05;;;;;;;11.28;100.00;101349.81;4987863;28;20097;-66
2023/05/16 02:18:32;;;;;;;7.30;2.45;;;;;;;11.45;100.00;101373.75;4987862;28;20062;-66
2023/05/16 02:20:59;;;;;;;6.60;1.90;;;;;;;11.58;100.00;101390.84;4986481;28;20081;-66
2023/05/16 02:23:26;;;;;;;5.68;1.92;;;;;;;11.59;100.00;101402.19;4989393;28;20100;-66
2023/05/16 02:25:53;;;;;;;11.45;2.80;;;;;;;11.68;100.00;101395.81;4990153;28;20046;-66
2023/05/16 02:28:19;;;;;;;11.95;2.58;;;;;;;11.45;100.00;101386.03;4990758;28;20042;-66
2023/05/16 02:30:56;;;;;;;9.65;2.40;;;;;;;11.53;100.00;101381.41;4990349;28;20069;-66
2023/05/16 02:33:24;;;;;;;8.55;2.40;;;;;;;11.52;100.00;101387.56;4991013;28;20054;-66
2023/05/16 02:35:51;;;;;;;10.00;2.50;;;;;;;11.51;100.00;101391.94;4990563;28;20053;-66
2023/05/16 02:38:19;;;;;;;7.95;2.60;;;;;;;11.59;100.00;101389.06;4991097;28;20050;-66
2023/05/16 02:40:47;;;;;;;9.88;3.13;;;;;;;11.67;100.00;101384.47;4991103;28;20046;-66
2023/05/16 02:43:14;;;;;;;8.68;2.80;;;;;;;11.75;100.00;101395.53;4989592;28;20104;-66
2023/05/16 02:45:41;;;;;;;9.75;2.58;;;;;;;11.73;100.00;101392.13;4988544;28;20061;-66
2023/05/16 02:48:07;;;;;;;11.95;3.20;;;;;;;11.81;100.00;101391.00;4990709;28;20055;-66
2023/05/16 02:50:35;;;;;;;9.48;2.60;;;;;;;11.75;100.00;101389.44;4991078;28;20728;-66
2023/05/16 02:53:01;;;;;;;12.07;2.60;;;;;;;11.85;100.00;101385.63;4990333;28;20054;-66
2023/05/16 02:55:28;;;;;;;12.27;3.30;;;;;;;11.88;100.00;101376.78;4988592;28;20065;-66
2023/05/16 02:57:55;;;;;;;9.27;2.50;;;;;;;11.82;100.00;101374.38;4990377;28;20050;-66
2023/05/16 03:00:22;;;;;;;9.88;3.22;;;;;;;11.87;100.00;101375.09;4989938;28;20046;-66
2023/05/16 03:02:49;;;;;;;11.48;2.28;;;;;;;11.69;100.00;101371.28;4990719;28;20061;-66
2023/05/16 03:05:15;;;;;;;13.02;3.20;;;;;;;11.59;100.00;101361.06;4988825;28;20116;-66
2023/05/16 03:07:42;;;;;;;11.00;3.13;;;;;;;11.73;100.00;101378.16;4981049;28;20042;-66
2023/05/16 03:10:10;;;;;;;10.23;3.45;;;;;;;11.65;100.00;101364.41;4980274;28;20058;-66
2023/05/16 03:12:36;;;;;;;11.60;2.85;;;;;;;11.69;100.00;101372.16;4986447;28;20054;-66
2023/05/16 03:15:03;;;;;;;9.35;2.88;;;;;;;11.62;100.00;101359.28;4988892;28;20105;-66
2023/05/16 03:17:30;;;;;;;11.95;2.90;;;;;;;11.55;100.00;101356.00;4990139;28;20133;-66
2023/05/16 03:19:57;;;;;;;12.00;3.03;;;;;;;11.58;100.00;101356.75;4990126;28;20077;-66
2023/05/16 03:22:24;;;;;;;12.82;2.78;;;;;;;11.45;100.00;101344.06;4989926;28;20046;-66
2023/05/16 03:24:50;;;;;;;13.82;4.25;;;;;;;11.30;100.00;101354.13;4991194;28;20061;-66
2023/05/16 03:27:17;;;;;;;16.33;4.30;;;;;;;11.17;100.00;101343.19;4989674;28;20124;-66
2023/05/16 03:29:44;;;;;;;14.25;3.70;;;;;;;11.19;100.00;101337.84;4989020;28;20062;-66
2023/05/16 03:32:10;;;;;;;12.15;3.25;;;;;;;11.37;100.00;101353.03;4989538;28;20062;-66
2023/05/16 03:34:37;;;;;;;14.77;3.63;;;;;;;11.19;100.00;101341.34;4991571;28;20046;-66
2023/05/16 03:37:04;;;;;;;10.32;2.78;;;;;;;11.21;100.00;101346.56;4989699;28;20113;-66
2023/05/16 03:39:31;;;;;;;13.07;3.22;;;;;;;11.17;100.00;101337.06;4989277;28;20054;-66
2023/05/16 03:41:58;;;;;;;9.57;3.28;;;;;;;11.23;100.00;101343.91;4984786;28;20053;-66
2023/05/16 03:44:24;;;;;;;12.63;3.97;;;;;;;11.10;100.00;101325.03;4988665;28;20050;-66
2023/05/16 03:46:53;;;;;;;13.30;2.78;;;;;;;11.20;100.00;101342.22;4989288;28;20771;-66
2023/05/16 03:49:23;;;;;;;13.75;3.80;;;;;;;11.06;100.00;101326.91;4989959;28;20503;-66
2023/05/16 03:51:49;;;;;;;10.82;3.20;;;;;;;11.16;100.00;101335.34;4991368;28;20062;-66
2023/05/16 03:54:16;;;;;;;13.02;3.28;;;;;;;10.97;100.00;101330.66;4988947;28;20061;-66
2023/05/16 03:56:43;;;;;;;15.15;4.47;;;;;;;11.10;100.00;101343.38;4988458;28;20046;-66
2023/05/16 03:59:09;;;;;;;13.15;3.53;;;;;;;11.11;100.00;101348.59;4986342;28;20065;-66
2023/05/16 04:01:36;;;;;;;10.18;2.67;;;;;;;11.19;100.00;101340.47;4988482;28;20058;-66
2023/05/16 04:04:03;;;;;;;11.38;3.20;;;;;;;11.13;100.00;101353.78;4989313;28;20053;-65
2023/05/16 04:06:30;;;;;;;10.90;3.35;;;;;;;11.13;100.00;101364.28;4984098;28;20105;-65
2023/05/16 04:08:57;;;;;;;16.50;3.75;;;;;;;11.16;100.00;101357.16;4989741;28;20373;-66
2023/05/16 04:11:25;;;;;;;11.25;3.55;;;;;;;11.03;100.00;101353.22;4975474;28;20077;-65
2023/05/16 04:13:52;;;;;;;9.18;3.25;;;;;;;11.11;100.00;101363.47;4988842;28;20054;-65
2023/05/16 04:16:19;;;;;;;16.25;3.28;;;;;;;11.09;100.00;101354.78;4985962;28;20475;-65
2023/05/16 04:18:46;;;;;;;12.25;3.58;;;;;;;11.09;100.00;101357.41;4989679;28;20046;-66
2023/05/16 04:21:14;;;;;;;12.27;3.30;;;;;;;11.12;100.00;101363.41;4988832;28;20060;-65
2023/05/16 04:23:41;;;;;;;13.73;3.20;;;;;;;11.06;100.00;101355.72;4987480;28;20165;-66
2023/05/16 04:26:08;;;;;;;16.13;3.53;;;;;;;11.17;100.00;101361.53;4988673;28;20218;-66
2023/05/16 04:28:34;;;;;;;13.10;3.28;;;;;;;11.01;100.00;101342.78;4989606;28;20484;-65
2023/05/16 04:31:01;;;;;;;14.65;3.38;;;;;;;11.14;100.00;101363.38;4988694;28;20055;-66
2023/05/16 04:33:28;;;;;;;13.20;3.38;;;;;;;11.00;100.00;101346.28;4984496;28;20177;-66
2023/05/16 04:35:57;;;;;;;13.27;3.80;;;;;;;11.15;100.00;101352.81;4989324;28;20058;-66
2023/05/16 04:38:24;;;;;;;12.77;3.40;;;;;;;11.18;100.00;101351.88;4989568;28;20495;-66
2023/05/16 04:40:51;;;;;;;13.90;3.90;;;;;;;11.08;100.00;101339.97;4989107;28;20424;-67
2023/05/16 04:43:19;;;;;;;10.80;2.90;;;;;;;11.40;100.00;101360.81;4989567;28;20061;-66
2023/05/16 04:45:46;;;;;;;13.73;3.38;;;;;;;11.34;100.00;101357.53;4987991;28;20468;-66
2023/05/16 04:48:12;;;;;;;13.52;3.17;;;;;;;11.44;100.00;101353.72;4989283;28;20058;-66
2023/05/16 04:50:39;;;;;;;13.98;3.75;;;;;;;11.54;100.00;101354.25;4988384;28;20054;-66
2023/05/16 04:53:05;;;;;;;11.68;3.50;;;;;;;11.61;100.00;101350.53;4987909;28;20121;-66
2023/05/16 04:55:32;;;;;;;12.93;3.55;;;;;;;11.55;100.00;101338.47;4988666;28;20108;-66
2023/05/16 04:57:59;;;;;;;10.57;2.55;;;;;;;11.59;100.00;101345.34;4989196;28;20046;-66
2023/05/16 05:00:26;;;;;;;16.05;3.45;;;;;;;11.78;100.00;101348.22;4988535;28;20121;-66
2023/05/16 05:02:53;;;;;;;10.07;2.83;;;;;;;11.87;100.00;101357.56;4989128;28;20054;-66
2023/05/16 05:05:20;;;;;;;9.30;2.78;;;;;;;11.97;100.00;101363.41;4987508;28;20061;-66
2023/05/16 05:07:47;;;;;;;12.57;3.20;;;;;;;12.01;100.00;101361.53;4975981;28;20161;-65
2023/05/16 05:10:14;;;;;;;12.27;2.63;;;;;;;12.13;100.00;101363.75;4981647;28;20128;-66
2023/05/16 05:12:40;;;;;;;9.68;3.08;;;;;;;12.13;100.00;101369.00;4987803;28;20054;-66
2023/05/16 05:15:07;;;;;;;14.75;3.60;;;;;;;11.98;100.00;101362.50;4987484;28;20412;-66
2023/05/16 05:17:34;;;;;;;10.88;3.03;;;;;;;12.34;100.00;101370.00;4988197;28;20045;-66
2023/05/16 05:20:05;;;;;;;10.95;3.53;;;;;;;12.34;100.00;101360.38;4991341;28;20055;-66
2023/05/16 05:22:32;;;;;;;12.07;3.58;;;;;;;12.50;100.00;101365.06;4988243;28;20081;-66
2023/05/16 05:24:59;;;;;;;12.52;3.22;;;;;;;12.65;100.00;101369.78;4991131;28;20058;-66
2023/05/16 05:27:26;;;;;;;13.40;3.20;;;;;;;12.81;100.00;101366.59;4983269;28;20047;-66
2023/05/16 05:29:53;;;;;;;11.48;3.25;;;;;;;12.78;100.00;101366.72;4990394;28;20423;-66
2023/05/16 05:32:19;;;;;;;16.55;3.75;;;;;;;12.72;100.00;101358.13;4984830;28;20061;-67
2023/05/16 05:34:46;;;;;;;10.88;2.88;;;;;;;12.56;100.00;101364.88;4989545;28;20061;-66
2023/05/16 05:37:13;;;;;;;15.82;3.38;;;;;;;12.62;100.00;101348.88;4986016;28;20051;-67
2023/05/16 05:39:40;;;;;;;11.20;3.55;;;;;;;12.80;100.00;101364.88;4987455;28;20050;-66
2023/05/16 05:42:08;;;;;;;12.52;3.83;;;;;;;12.95;100.00;101356.44;4984309;28;20055;-66
2023/05/16 05:44:36;;;;;;;13.25;2.97;;;;;;;12.92;100.00;101364.44;4983553;28;20065;-65
2023/05/16 05:47:05;;;;;;;9.10;3.15;;;;;;;13.21;100.00;101367.72;4990622;28;20056;-66
2023/05/16 05:49:32;;;;;;;15.88;3.33;;;;;;;13.17;100.00;101366.13;4990906;28;20050;-66
2023/05/16 05:51:59;;;;;;;13.68;3.90;;;;;;;13.02;100.00;101357.91;4986682;28;20551;-66
2023/05/16 05:54:26;;;;;;;14.85;3.60;;;;;;;13.17;100.00;101358.25;4982733;28;20058;-66
2023/05/16 05:56:52;;;;;;;10.25;2.85;;;;;;;12.83;100.00;101309.59;4966161;28;20113;-66
2023/05/16 05:59:19;;;;;;;11.05;3.17;;;;;;;13.43;100.00;101350.22;4986092;28;20054;-66
2023/05/16 06:01:46;;;;;;;13.88;2.85;;;;;;;14.13;100.00;101363.16;4978405;28;20050;-66
2023/05/16 06:04:13;;;;;;;18.13;3.75;;;;;;;14.50;100.00;101358.94;4978363;28;20061;-66
2023/05/16 06:06:40;;;;;;;13.65;2.72;;;;;;;14.82;100.00;101336.47;4978700;28;20057;-66
2023/05/16 06:09:06;;;;;;;13.00;3.00;;;;;;;15.41;100.00;101346.91;4988177;28;20500;-67
2023/05/16 06:11:33;;;;;;;12.00;3.35;;;;;;;15.16;100.00;101351.56;4987423;28;20058;-67
2023/05/16 06:14:00;;;;;;;8.38;2.20;;;;;;;15.65;100.00;101352.78;4986998;28;20054;-67
2023/05/16 06:16:26;;;;;;;11.15;2.80;;;;;;;16.08;100.00;101361.25;4986453;28;20054;-67
2023/05/16 06:18:53;;;;;;;10.63;3.10;;;;;;;16.19;100.00;101356.25;4983577;28;20129;-67
2023/05/16 06:21:20;;;;;;;10.85;2.72;;;;;;;16.38;100.00;101374.66;4977564;28;20065;-67
2023/05/16 06:23:46;;;;;;;17.02;3.30;;;;;;;15.85;100.00;101373.81;4983416;28;20061;-67
2023/05/16 06:26:13;;;;;;;9.30;2.50;;;;;;;16.08;100.00;101369.16;4989601;28;20050;-67
2023/05/16 06:28:40;;;;;;;13.77;3.45;;;;;;;16.20;100.00;101376.47;4987738;28;20046;-66
2023/05/16 06:31:07;;;;;;;12.85;3.03;;;;;;;16.48;100.00;101365.31;4990088;28;20508;-68
2023/05/16 06:33:33;;;;;;;13.45;3.33;;;;;;;15.89;100.00;101375.34;4989238;28;20416;-67
2023/05/16 06:36:00;;;;;;;9.95;2.50;;;;;;;16.39;100.00;101383.44;4991790;28;20049;-67
2023/05/16 06:38:27;;;;;;;8.48;2.38;;;;;;;16.12;100.00;101376.00;4972815;28;20058;-66
2023/05/16 06:40:53;;;;;;;10.52;2.92;;;;;;;15.25;100.00;101381.94;4990115;28;20050;-67
2023/05/16 06:43:20;;;;;;;10.82;2.65;;;;;;;14.92;100.00;101379.91;4990227;28;20104;-67
2023/05/16 06:45:47;;;;;;;9.73;2.72;;;;;;;15.18;100.00;101383.16;4988989;28;20152;-67
2023/05/16 06:48:14;;;;;;;9.13;2.45;;;;;;;16.20;100.00;101380.88;4990514;28;20046;-67
2023/05/16 06:50:41;;;;;;;14.20;2.83;;;;;;;16.02;100.00;101382.66;4990375;28;20165;-67
2023/05/16 06:53:08;;;;;;;10.85;2.17;;;;;;;15.52;100.00;101369.19;4990248;28;20050;-67
2023/05/16 06:55:34;;;;;;;6.93;2.25;;;;;;;15.07;100.00;101374.88;4988695;28;20042;-67
2023/05/16 06:58:01;;;;;;;10.85;2.28;;;;;;;14.91;100.00;101390.53;4983516;28;20201;-67
2023/05/16 07:00:28;;;;;;;9.35;2.13;;;;;;;14.48;100.00;101380.09;4991015;28;20053;-67
2023/05/16 07:02:55;;;;;;;7.20;1.92;;;;;;;14.55;100.00;101375.41;4991423;28;20442;-67
2023/05/16 07:05:22;;;;;;;9.55;2.10;;;;;;;13.90;100.00;101388.72;4990620;28;20062;-67
2023/05/16 07:07:48;;;;;;;9.43;1.80;;;;;;;13.83;100.00;101388.09;4979921;28;20042;-67
2023/05/16 07:10:15;;;;;;;7.45;2.08;;;;;;;14.00;100.00;101381.28;4989565;28;20129;-67
2023/05/16 07:12:42;;;;;;;8.25;2.25;;;;;;;13.93;100.00;101393.81;4990961;28;20411;-67
2023/05/16 07:15:09;;;;;;;7.13;1.90;;;;;;;13.71;100.00;101387.75;4990011;28;20354;-67
2023/05/16 07:17:36;;;;;;;5.80;1.92;;;;;;;13.30;100.00;101388.41;4990935;28;20045;-67
2023/05/16 07:20:04;;;;;;;9.60;2.20;;;;;;;13.21;100.00;101389.63;4990410;28;20060;-67
2023/05/16 07:22:31;;;;;;;6.95;1.95;;;;;;;13.43;100.00;101391.47;4990446;28;20271;-66
2023/05/16 07:24:59;;;;;;;6.35;1.80;;;;;;;13.54;100.00;101391.88;4989716;28;20345;-67
2023/05/16 07:27:27;;;;;;;7.03;1.70;;;;;;;13.80;100.00;101390.84;4990592;28;20054;-67
2023/05/16 07:29:54;;;;;;;7.20;1.85;;;;;;;13.55;100.00;101406.75;4991320;28;20082;-67
2023/05/16 07:32:20;;;;;;;4.88;1.40;;;;;;;13.63;100.00;101412.59;4990939;28;20050;-67
2023/05/16 07:34:48;;;;;;;6.72;1.88;;;;;;;13.13;100.00;101422.38;4994068;28;20046;-67
2023/05/16 07:37:17;;;;;;;6.95;1.90;;;;;;;13.37;100.00;101410.09;4991171;28;20133;-67
2023/05/16 07:39:45;;;;;;;7.20;1.48;;;;;;;13.42;100.00;101405.50;4973355;28;20468;-66
2023/05/16 07:42:14;;;;;;;9.48;2.10;;;;;;;13.46;100.00;101409.75;4982169;28;20054;-66
2023/05/16 07:44:44;;;;;;;9.43;1.80;;;;;;;14.07;100.00;101400.31;4987424;28;20079;-66
2023/05/16 07:47:11;;;;;;;8.10;1.80;;;;;;;14.08;100.00;101410.78;4980573;28;20050;-67
2023/05/16 07:49:37;;;;;;;7.05;1.77;;;;;;;14.48;100.00;101414.34;4985595;28;20058;-67
2023/05/16 07:52:04;;;;;;;6.13;1.67;;;;;;;14.47;100.00;101420.56;4972164;28;20052;-67
2023/05/16 07:54:35;;;;;;;5.72;1.45;;;;;;;14.84;100.00;101424.25;4986964;28;20488;-67
2023/05/16 07:57:06;;;;;;;5.43;1.50;;;;;;;14.96;100.00;101430.72;4968371;28;20141;-67
2023/05/16 07:59:35;;;;;;;5.57;1.63;;;;;;;14.80;100.00;101428.81;4970442;28;20046;-68
2023/05/16 08:02:02;;;;;;;6.78;1.98;;;;;;;15.15;100.00;101426.34;4970763;28;20050;-67
2023/05/16 08:04:29;;;;;;;5.85;1.60;;;;;;;15.88;100.00;101415.91;4982668;28;20443;-68
2023/05/16 08:06:55;;;;;;;5.47;1.50;;;;;;;16.65;100.00;101427.88;4989331;28;20068;-67
2023/05/16 08:09:22;;;;;;;5.88;1.75;;;;;;;17.40;100.00;101430.09;4986507;28;20052;-67
2023/05/16 08:11:49;;;;;;;7.63;1.80;;;;;;;16.97;100.00;101420.06;4986019;28;20062;-67
2023/05/16 08:14:16;;;;;;;5.47;1.88;;;;;;;17.61;100.00;101430.69;4987383;28;20081;-67
2023/05/16 08:16:42;;;;;;;6.70;1.80;;;;;;;17.64;100.00;101431.38;4987918;28;20133;-68
2023/05/16 08:19:09;;;;;;;9.85;2.22;;;;;;;17.75;100.00;101427.28;4984864;28;20074;-68
2023/05/16 08:21:37;;;;;;;6.97;1.92;;;;;;;17.48;100.00;101412.00;4986294;28;20073;-67
2023/05/16 08:24:04;;;;;;;7.88;2.03;;;;;;;17.77;100.00;101436.84;4982418;28;20494;-68
2023/05/16 08:26:31;;;;;;;8.35;1.85;;;;;;;17.28;100.00;101426.31;4988569;28;20054;-68
2023/05/16 08:28:58;;;;;;;7.65;2.05;;;;;;;17.79;100.00;101428.81;4979557;28;20082;-67
2023/05/16 08:31:25;;;;;;;6.97;2.17;;;;;;;17.37;100.00;101431.13;4977449;28;20133;-67
2023/05/16 08:33:51;;;;;;;9.07;2.35;;;;;;;17.66;100.00;101436.59;4978497;28;20050;-67
2023/05/16 08:36:19;;;;;;;9.23;2.70;;;;;;;17.61;100.00;101441.28;4989470;28;20046;-67
2023/05/16 08:38:46;;;;;;;8.57;2.35;;;;;;;16.75;100.00;101440.59;4989637;28;20101;-67
2023/05/16 08:41:13;;;;;;;9.95;2.35;;;;;;;16.88;100.00;101449.66;4989840;28;20480;-69
2023/05/16 08:43:40;;;;;;;9.48;2.45;;;;;;;16.03;100.00;101443.34;4989137;28;20133;-69
2023/05/16 08:46:07;;;;;;;7.60;2.17;;;;;;;16.27;100.00;101461.53;4988022;28;20718;-69
2023/05/16 08:48:36;;;;;;;8.68;2.25;;;;;;;15.66;100.00;101449.53;4989423;28;20078;-69
2023/05/16 08:51:05;;;;;;;8.68;2.60;;;;;;;15.40;100.00;101458.66;4989469;28;20068;-69
2023/05/16 08:53:44;;;;;;;8.93;2.67;;;;;;;15.13;100.00;101411.53;4991286;28;20050;-69
2023/05/16 08:56:12;;;;;;;10.63;2.47;;;;;;;15.39;100.00;101444.63;4992932;28;20058;-68
2023/05/16 08:58:39;;;;;;;6.80;2.45;;;;;;;15.07;100.00;101432.88;4992359;28;20078;-68
2023/05/16 09:01:08;;;;;;;7.90;2.05;;;;;;;14.95;100.00;101456.25;4992293;28;20482;-69
2023/05/16 09:03:36;;;;;;;9.80;2.20;;;;;;;15.90;100.00;101461.59;4988315;28;20047;-68
2023/05/16 09:06:06;;;;;;;8.07;2.15;;;;;;;16.49;100.00;101448.13;4985268;28;20050;-68
2023/05/16 09:08:34;;;;;;;7.25;2.17;;;;;;;17.49;100.00;101449.91;4987809;28;20050;-68
2023/05/16 09:11:02;;;;;;;15.00;2.35;;;;;;;16.40;100.00;101467.09;4992951;28;20166;-68
2023/05/16 09:13:29;;;;;;;7.70;2.30;;;;;;;15.95;100.00;101456.06;4992567;28;20085;-68
2023/05/16 09:16:15;;;;;;;9.52;2.33;;;;;;;16.60;100.00;101448.41;4993675;28;20042;-68
2023/05/16 09:18:52;;;;;;;9.35;2.45;;;;;;;16.45;100.00;101460.63;4993559;28;20046;-68
2023/05/16 09:21:20;;;;;;;7.05;2.20;;;;;;;16.54;100.00;101448.75;4981237;28;20056;-68
2023/05/16 09:23:50;;;;;;;14.68;3.05;;;;;;;16.19;100.00;101461.94;4991392;28;20060;-68
2023/05/16 09:26:18;;;;;;;5.90;1.83;;;;;;;16.51;100.00;101459.47;4970006;28;20092;-68
2023/05/16 09:28:45;;;;;;;7.78;2.38;;;;;;;17.15;100.00;101451.75;4986052;28;20042;-68
2023/05/16 09:31:37;;;;;;;8.00;2.20;;;;;;;17.47;100.00;101436.75;4993319;28;20054;-68
2023/05/16 09:34:08;;;;;;;10.65;2.40;;;;;;;17.54;100.00;101447.88;4993074;28;20137;-68
2023/05/16 09:36:35;;;;;;;9.43;2.72;;;;;;;17.51;100.00;101432.16;4994613;28;20050;-68
2023/05/16 09:39:02;;;;;;;7.43;2.33;;;;;;;17.69;100.00;101425.84;4993646;28;20050;-68
2023/05/16 09:41:33;;;;;;;11.70;2.67;;;;;;;17.58;100.00;101431.75;4994703;28;20850;-68
2023/05/16 09:44:05;;;;;;;13.60;2.85;;;;;;;16.99;100.00;101419.97;4992804;28;20488;-68
2023/05/16 09:46:33;;;;;;;11.18;2.97;;;;;;;17.20;100.00;101444.44;4994992;28;20108;-68
2023/05/16 09:49:01;;;;;;;7.72;2.70;;;;;;;17.28;100.00;101436.91;4993730;28;20047;-68
2023/05/16 09:51:28;;;;;;;8.63;2.50;;;;;;;16.92;100.00;101445.06;4992516;28;20057;-68
2023/05/16 09:53:57;;;;;;;9.40;2.90;;;;;;;16.55;100.00;101454.88;4993181;28;20066;-68
2023/05/16 09:56:24;;;;;;;9.32;2.88;;;;;;;16.31;100.00;101468.41;4993333;28;20138;-68
2023/05/16 09:58:51;;;;;;;8.13;2.60;;;;;;;15.90;100.00;101487.13;4975936;28;20070;-68
2023/05/16 10:01:18;;;;;;;8.02;2.53;;;;;;;15.40;100.00;101480.63;4992741;28;20146;-67
2023/05/16 10:03:45;;;;;;;7.85;2.40;;;;;;;15.67;100.00;101494.34;4991878;28;20046;-67
2023/05/16 10:06:12;;;;;;;8.13;2.40;;;;;;;15.22;100.00;101510.47;4992817;28;20121;-68
2023/05/16 10:08:41;;;;;;;7.05;2.10;;;;;;;15.06;100.00;101510.31;4992638;28;20468;-68
2023/05/16 10:11:09;;;;;;;8.48;2.35;;;;;;;14.67;100.00;101459.25;4991837;28;20055;-68
2023/05/16 10:13:36;;;;;;;7.20;2.13;;;;;;;15.37;100.00;101499.25;4992169;28;20412;-68
2023/05/16 10:16:10;;;;;;;10.48;2.70;;;;;;;15.51;100.00;101501.22;4989470;28;20395;-68
2023/05/16 10:18:38;;;;;;;9.38;3.15;;;;;;;15.41;100.00;101514.00;4992629;28;20062;-68
2023/05/16 10:21:09;;;;;;;9.23;2.85;;;;;;;14.97;100.00;101512.41;4993126;28;20050;-68
2023/05/16 10:23:41;;;;;;;9.63;2.92;;;;;;;15.51;100.00;101502.09;4992354;28;20092;-68
2023/05/16 10:26:08;;;;;;;8.60;2.83;;;;;;;15.03;100.00;101508.66;4992344;28;20066;-68
2023/05/16 10:28:35;;;;;;;9.93;2.60;;;;;;;14.79;100.00;101508.81;4992245;28;20133;-68
2023/05/16 10:31:03;;;;;;;8.10;1.95;;;;;;;15.20;100.00;101521.09;4991584;28;20058;-68
2023/05/16 10:33:30;;;;;;;7.85;2.00;;;;;;;14.76;100.00;101526.53;4974235;28;20054;-68
2023/05/16 10:35:57;;;;;;;8.85;2.58;;;;;;;14.01;100.00;101515.50;4978463;28;20055;-68
2023/05/16 10:38:26;;;;;;;13.82;2.15;;;;;;;13.82;100.00;101536.41;4991978;28;20056;-68
2023/05/16 10:40:54;;;;;;;11.07;2.17;;;;;;;14.06;100.00;101523.22;4991689;28;20061;-68
2023/05/16 10:43:26;;;;;;;10.45;2.63;;;;;;;14.19;100.00;101508.63;4991871;28;20058;-68
2023/05/16 10:46:06;;;;;;;10.75;2.85;;;;;;;14.41;100.00;101531.44;4987521;28;20050;-67
2023/05/16 10:48:35;;;;;;;11.23;2.60;;;;;;;14.69;100.00;101525.94;4980409;28;20052;-68
2023/05/16 10:51:03;;;;;;;15.10;2.65;;;;;;;14.91;100.00;101519.72;4992545;28;20580;-68
2023/05/16 10:53:36;;;;;;;16.67;2.75;;;;;;;14.97;100.00;101522.97;4978427;28;20459;-68
2023/05/16 10:56:02;;;;;;;10.45;2.58;;;;;;;15.09;100.00;101516.31;4973189;28;20097;-68
2023/05/16 10:58:36;;;;;;;15.48;2.88;;;;;;;15.64;100.00;101528.78;4973570;28;20086;-67
2023/05/16 11:01:22;;;;;;;16.85;3.20;;;;;;;15.00;100.00;101522.84;4991967;28;20046;-68
2023/05/16 11:03:58;;;;;;;13.65;4.22;;;;;;;15.42;100.00;101514.84;4990766;28;20164;-67
2023/05/16 11:06:41;;;;;;;13.30;3.25;;;;;;;15.57;100.00;101517.66;4983738;28;20062;-68
2023/05/16 11:09:18;;;;;;;13.23;2.63;;;;;;;15.76;100.00;101506.28;4991527;28;20451;-67
2023/05/16 11:11:51;;;;;;;11.85;3.05;;;;;;;16.42;100.00;101526.00;4989774;28;20047;-67
2023/05/16 11:14:22;;;;;;;16.58;3.35;;;;;;;16.30;100.00;101525.66;4959437;28;20065;-68
2023/05/16 11:16:58;;;;;;;12.75;2.83;;;;;;;15.78;100.00;101529.97;4988819;28;20386;-68
2023/05/16 11:19:32;;;;;;;15.48;3.33;;;;;;;15.91;100.00;101531.94;4991139;28;20455;-68
2023/05/16 11:22:10;;;;;;;20.02;3.38;;;;;;;15.99;100.00;101551.84;4986660;28;20101;-68